Terminal Aerodrome Forecast
Issued by NWS

Home | Current Version | Previous Version | Text Only | Print | Product List | Glossary On
Versions: 1 2 3 4 5 6 7 8 9 10 11 12 13 14
000
FTUS43 KGRB 292338
TAFATW
TAF
KATW 292338Z 3000/3024 20005KT P6SM VCSH SCT035 BKN080
      TEMPO 3001/3003 4SM TSRA BR BKN035CB
     FM300400 VRB03KT P6SM VCSH SCT015 BKN100
     FM301000 VRB03KT 6SM BR BKN012 BKN035
      TEMPO 3010/3014 3SM BR BKN006
     FM301500 36008KT P6SM BKN020 BKN035
     FM301800 01011KT P6SM BKN035=

USA.gov is the U.S. government's official web portal to all federal, state and local government web resources and services.